KBVO/BVO METAR and TAF weather

Enter ICAO airport designator
Station Type Date Time Source
KBVO METAR 2021/09/27 07:53 UTC NOAA

KBVO 270753Z AUTO 20006KT 10SM CLR 21/11 A2995 RMK AO2 SLP129 T02060111


Station Type Date Time Source
KBVO Decoded METAR 2021/09/27 07:53 UTC NOAA

BARTLESVILLE MUNICIPAL AIRPORT , OK, United States (KBVO) 36-46N 96-01W 210M
Sep 27, 2021 - 03:53 AM EDT / 2021.09.27 0753 UTC
Wind: from the SSW (200 degrees) at 7 MPH (6 KT):0
Visibility: 10 mile(s):0
Sky conditions: clear
Temperature: 69.1 F (20.6 C)
Dew Point: 52.0 F (11.1 C)
Relative Humidity: 54%
Pressure (altimeter): 29.95 in. Hg (1014 hPa)
ob: KBVO 270753Z AUTO 20006KT 10SM CLR 21/11 A2995 RMK AO2 SLP129 T02060111
cycle: 8

Station Type Date Time Source
KBVO TAF 2021/09/27 06:22 UTC NOAA

TAF KBVO 270520Z 2706/2806 20008KT P6SM SCT250 WS020/22040KT
FM271500 20013G23KT P6SM FEW250
FM272200 18011KT P6SM SCT250

Example: see airport list